Time;durP1;ratioP1;P1;durP2;ratioP2;P2;SDS_P1;SDS_P2;PMS_P1;PMS_P2;Temp;Humidity;BMP_temperature;BMP_pressure;BME280_temperature;BME280_humidity;BME280_pressure;Samples;Min_cycle;Max_cycle;Signal;HPM_P1;HPM_P2
2022/05/16 00:01:28;;;;;;;10.45;3.70;;;;;;;16.73;56.60;100417.34;5076238;28;20128;-74
2022/05/16 00:03:56;;;;;;;9.27;3.90;;;;;;;16.67;56.58;100419.66;5074643;28;20408;-70
2022/05/16 00:06:24;;;;;;;7.50;3.70;;;;;;;16.51;57.13;100426.31;5075873;28;20409;-71
2022/05/16 00:08:55;;;;;;;9.75;3.83;;;;;;;16.38;57.63;100422.91;5075528;28;20045;-72
2022/05/16 00:11:23;;;;;;;10.82;4.15;;;;;;;16.48;57.32;100425.69;5076228;28;20064;-83
2022/05/16 00:13:51;;;;;;;8.15;3.92;;;;;;;16.30;58.03;100422.66;5074454;28;20095;-83
2022/05/16 00:16:19;;;;;;;8.27;4.15;;;;;;;16.13;58.50;100428.56;5074787;28;20048;-78
2022/05/16 00:18:48;;;;;;;7.32;3.58;;;;;;;16.13;58.77;100431.25;5075777;28;20485;-78
2022/05/16 00:21:16;;;;;;;6.90;3.80;;;;;;;16.01;59.30;100427.69;5074646;28;20132;-77
2022/05/16 00:23:44;;;;;;;10.55;4.10;;;;;;;15.98;59.90;100419.88;5075535;28;20048;-78
2022/05/16 00:26:14;;;;;;;8.65;4.30;;;;;;;16.00;59.67;100432.22;5075867;28;20044;-78
2022/05/16 00:28:42;;;;;;;11.60;4.30;;;;;;;16.05;59.25;100433.72;5075174;28;20450;-78
2022/05/16 00:31:10;;;;;;;7.05;3.80;;;;;;;16.10;59.41;100431.50;5075928;28;20128;-79
2022/05/16 00:33:38;;;;;;;8.32;3.97;;;;;;;16.06;59.43;100440.81;5075592;28;20040;-77
2022/05/16 00:36:07;;;;;;;6.07;3.55;;;;;;;15.97;59.60;100439.69;5075456;28;20131;-76
2022/05/16 00:38:35;;;;;;;8.05;3.65;;;;;;;16.16;59.32;100449.84;5075657;28;20036;-71
2022/05/16 00:41:05;;;;;;;23.10;7.15;;;;;;;16.15;59.57;100449.00;5075042;28;20050;-72
2022/05/16 00:43:48;;;;;;;9.27;3.80;;;;;;;16.01;59.25;100444.69;5075637;28;20123;-73
2022/05/16 00:46:18;;;;;;;8.77;4.10;;;;;;;16.16;58.51;100442.63;5075301;28;20573;-74
2022/05/16 00:48:47;;;;;;;7.32;3.95;;;;;;;16.22;57.72;100443.97;5074830;28;20044;-76
2022/05/16 00:51:18;;;;;;;7.80;4.13;;;;;;;16.15;58.38;100453.53;5075308;28;20095;-75
2022/05/16 00:53:49;;;;;;;12.82;4.18;;;;;;;15.96;58.88;100452.28;5073911;28;20075;-76
2022/05/16 00:56:18;;;;;;;5.57;3.60;;;;;;;15.96;58.75;100462.19;5074983;28;20068;-74
2022/05/16 00:58:49;;;;;;;8.80;4.35;;;;;;;15.79;59.11;100455.47;5075271;28;20477;-80
2022/05/16 01:06:53;;;;;;;9.75;4.10;;;;;;;15.69;59.89;100463.38;5074605;28;20043;-75
2022/05/16 01:09:22;;;;;;;7.80;3.53;;;;;;;15.78;58.60;100461.81;5075061;28;20402;-74
2022/05/16 01:11:51;;;;;;;10.02;4.40;;;;;;;15.78;59.69;100458.28;5073470;28;20075;-75
2022/05/16 01:14:39;;;;;;;17.55;5.60;;;;;;;15.80;60.54;100449.09;5074870;28;20040;-74
2022/05/16 01:17:08;;;;;;;11.00;4.07;;;;;;;15.69;58.96;100451.78;5074608;28;20114;-75
2022/05/16 01:19:38;;;;;;;8.85;4.25;;;;;;;15.89;58.10;100455.59;5073439;28;20481;-74
2022/05/16 01:22:10;;;;;;;8.93;4.15;;;;;;;15.75;60.15;100454.00;5074553;28;20110;-74
2022/05/16 01:24:40;;;;;;;9.10;4.05;;;;;;;15.77;59.45;100457.41;5074442;28;20089;-74
2022/05/16 01:27:08;;;;;;;9.65;4.03;;;;;;;15.58;61.10;100457.09;5074464;28;20056;-74
2022/05/16 01:29:36;;;;;;;11.35;4.88;;;;;;;15.44;62.02;100461.72;5074591;28;20044;-74
2022/05/16 01:32:05;;;;;;;7.95;4.05;;;;;;;15.60;61.82;100450.66;5074285;28;20518;-73
2022/05/16 01:34:33;;;;;;;9.52;4.20;;;;;;;15.72;61.13;100451.53;5074450;28;20461;-75
2022/05/16 01:37:01;;;;;;;8.10;4.25;;;;;;;15.65;61.80;100453.84;5074227;28;20121;-75
2022/05/16 01:39:30;;;;;;;7.28;3.78;;;;;;;15.55;61.50;100458.22;5073498;28;20037;-75
2022/05/16 01:41:59;;;;;;;7.43;4.28;;;;;;;15.55;61.92;100460.03;5073792;28;20060;-74
2022/05/16 01:44:27;;;;;;;7.88;4.10;;;;;;;15.62;61.54;100454.06;5074277;28;20048;-73
2022/05/16 01:46:56;;;;;;;8.85;4.47;;;;;;;15.69;61.66;100458.00;5073050;28;20067;-74
2022/05/16 01:49:24;;;;;;;9.25;4.43;;;;;;;15.45;62.91;100454.53;5072909;28;20354;-74
2022/05/16 01:51:52;;;;;;;9.73;4.30;;;;;;;15.33;63.35;100468.88;5073966;28;20063;-75
2022/05/16 01:54:20;;;;;;;9.13;4.57;;;;;;;15.18;63.89;100460.16;5074107;28;20481;-74
2022/05/16 01:56:48;;;;;;;7.13;4.30;;;;;;;15.16;64.23;100462.97;5074062;28;20454;-75
2022/05/16 01:59:18;;;;;;;6.90;4.50;;;;;;;15.07;65.06;100461.00;5074103;28;20075;-75
2022/05/16 02:01:46;;;;;;;7.18;4.15;;;;;;;15.14;65.02;100459.53;5072886;28;20102;-75
2022/05/16 02:04:14;;;;;;;11.48;4.45;;;;;;;15.04;65.88;100463.03;5073638;28;20090;-75
2022/05/16 02:06:42;;;;;;;8.85;4.50;;;;;;;14.99;66.04;100470.59;5073786;28;20045;-73
2022/05/16 02:09:11;;;;;;;11.10;4.45;;;;;;;14.78;66.68;100471.22;5073594;28;20527;-73
2022/05/16 02:11:39;;;;;;;11.25;4.63;;;;;;;14.75;66.78;100466.06;5072486;28;20450;-75
2022/05/16 02:14:07;;;;;;;9.43;4.40;;;;;;;14.87;66.41;100462.50;5073533;28;20101;-75
2022/05/16 02:16:36;;;;;;;7.60;4.53;;;;;;;15.08;65.61;100464.53;5070095;28;20440;-74
2022/05/16 02:19:05;;;;;;;7.97;4.40;;;;;;;15.04;65.75;100469.25;5072406;28;20102;-75
2022/05/16 02:27:03;;;;;;;9.18;4.68;;;;;;;14.80;67.13;100466.59;5063243;28;20063;-72
2022/05/16 02:29:32;;;;;;;10.50;4.80;;;;;;;14.74;67.66;100480.47;5071540;28;20102;-74
2022/05/16 02:32:01;;;;;;;8.93;4.75;;;;;;;14.67;68.06;100483.69;5068687;28;20045;-74
2022/05/16 02:34:30;;;;;;;7.88;4.38;;;;;;;14.77;68.28;100491.00;5053368;28;20076;-75
2022/05/16 02:36:59;;;;;;;9.95;4.65;;;;;;;14.62;69.72;100493.94;5053284;28;20445;-75
2022/05/16 02:39:29;;;;;;;9.48;4.85;;;;;;;14.56;70.35;100479.97;5053192;28;20406;-75
2022/05/16 02:41:58;;;;;;;8.55;5.07;;;;;;;14.33;71.53;100484.31;5053238;28;20048;-75
2022/05/16 02:44:26;;;;;;;8.85;5.00;;;;;;;14.36;71.81;100474.31;5053226;28;20049;-75
2022/05/16 02:46:54;;;;;;;8.73;5.00;;;;;;;14.33;72.02;100484.31;5053226;28;20045;-78
2022/05/16 02:49:24;;;;;;;9.23;4.97;;;;;;;14.25;72.26;100478.63;5051801;28;20057;-77
2022/05/16 02:51:52;;;;;;;10.10;5.05;;;;;;;14.06;73.85;100486.28;5052964;28;20040;-75
2022/05/16 02:54:21;;;;;;;10.25;5.25;;;;;;;14.23;72.94;100472.53;5068693;28;20075;-75
2022/05/16 02:56:49;;;;;;;10.75;5.13;;;;;;;14.40;72.20;100473.16;5052882;28;20055;-75
2022/05/16 02:59:18;;;;;;;11.90;5.57;;;;;;;14.49;72.07;100477.88;5052944;28;20112;-75
2022/05/16 03:01:46;;;;;;;9.32;4.95;;;;;;;14.35;72.83;100475.28;5051964;28;20045;-75
2022/05/16 03:04:14;;;;;;;10.50;5.50;;;;;;;14.33;73.67;100464.69;5052868;28;20045;-74
2022/05/16 03:06:44;;;;;;;10.27;5.00;;;;;;;14.35;73.31;100459.19;5052870;28;20049;-75
2022/05/16 03:09:12;;;;;;;9.40;5.70;;;;;;;14.23;74.20;100469.84;5051684;28;20053;-75
2022/05/16 03:11:40;;;;;;;10.40;5.07;;;;;;;14.23;74.21;100472.53;5051775;28;20053;-75
2022/05/16 03:14:08;;;;;;;9.10;5.47;;;;;;;14.14;75.53;100469.66;5052697;28;20418;-75
2022/05/16 03:16:37;;;;;;;11.57;5.10;;;;;;;14.11;76.15;100483.28;5052713;28;20462;-76
2022/05/16 03:19:05;;;;;;;11.15;5.38;;;;;;;14.15;75.97;100474.91;5052781;28;20051;-76
2022/05/16 03:21:34;;;;;;;9.98;4.85;;;;;;;14.67;72.55;100476.53;5052982;28;20045;-76
2022/05/16 03:24:04;;;;;;;8.18;4.75;;;;;;;14.71;72.31;100477.16;5052737;28;20124;-76
2022/05/16 03:26:35;;;;;;;11.60;5.20;;;;;;;14.64;72.62;100466.00;5053051;28;20098;-76
2022/05/16 03:29:05;;;;;;;10.98;5.20;;;;;;;14.75;72.61;100470.56;5052802;28;20115;-76
2022/05/16 03:31:33;;;;;;;9.10;5.22;;;;;;;14.68;72.84;100472.88;5053082;28;20080;-75
2022/05/16 03:34:01;;;;;;;8.10;4.90;;;;;;;14.64;73.10;100479.44;5052262;28;20486;-74
2022/05/16 03:36:30;;;;;;;10.55;5.20;;;;;;;14.70;73.08;100481.66;5068456;28;20055;-75
2022/05/16 03:41:45;;;;;;;10.13;5.18;;;;;;;15.27;69.92;100480.97;5052922;28;20047;-75
2022/05/16 03:44:13;;;;;;;10.23;4.95;;;;;;;15.13;70.61;100483.81;5052155;28;20041;-73
2022/05/16 03:46:41;;;;;;;10.45;5.15;;;;;;;15.29;70.57;100479.03;5068145;28;20465;-75
2022/05/16 03:49:10;;;;;;;7.70;4.72;;;;;;;15.63;68.88;100479.13;5052397;28;20065;-75
2022/05/16 03:51:38;;;;;;;13.80;5.55;;;;;;;16.33;66.33;100476.28;5052550;28;20092;-74
2022/05/16 03:54:07;;;;;;;15.55;5.25;;;;;;;16.94;63.74;100476.66;5052071;28;20067;-74
2022/05/16 03:56:36;;;;;;;8.02;4.70;;;;;;;17.12;62.01;100485.91;5051565;28;20055;-72
2022/05/16 03:59:05;;;;;;;8.88;5.03;;;;;;;17.46;61.31;100483.88;5052301;28;20052;-75
2022/05/16 04:01:36;;;;;;;10.13;5.10;;;;;;;18.07;58.42;100477.78;5051081;28;20049;-73
2022/05/16 04:04:13;;;;;;;7.60;5.07;;;;;;;18.90;55.72;100470.38;5053132;28;20559;-72
2022/05/16 04:06:41;;;;;;;9.32;5.18;;;;;;;19.24;54.31;100481.66;5055015;28;20055;-73
2022/05/16 04:09:09;;;;;;;7.32;4.60;;;;;;;19.21;53.88;100490.91;5055890;28;20041;-73
2022/05/16 04:11:38;;;;;;;9.93;4.63;;;;;;;19.56;52.39;100493.03;5055861;28;20041;-72
2022/05/16 04:14:08;;;;;;;9.95;4.40;;;;;;;18.67;55.04;100491.38;5055390;28;20437;-72
2022/05/16 04:16:37;;;;;;;7.82;4.50;;;;;;;19.25;53.89;100488.75;5055920;28;20045;-73
2022/05/16 04:19:07;;;;;;;9.18;4.57;;;;;;;19.95;51.42;100484.84;5055766;28;20041;-72
2022/05/16 04:21:35;;;;;;;9.07;4.28;;;;;;;20.34;50.79;100479.28;5071418;28;20087;-72
2022/05/16 04:24:05;;;;;;;9.52;4.35;;;;;;;20.22;50.27;100492.16;5055621;28;20055;-72
2022/05/16 04:26:34;;;;;;;9.50;4.20;;;;;;;19.83;51.02;100489.59;5055741;28;20129;-72
2022/05/16 04:29:02;;;;;;;10.30;4.28;;;;;;;20.01;50.63;100490.53;5054055;28;20434;-72
2022/05/16 04:31:32;;;;;;;9.80;4.28;;;;;;;19.53;51.77;100501.41;5054425;28;20080;-73
2022/05/16 04:34:00;;;;;;;9.27;4.18;;;;;;;18.87;53.22;100499.41;5055388;28;20052;-74
2022/05/16 04:36:28;;;;;;;9.75;4.30;;;;;;;18.25;55.36;100503.16;5054094;28;20479;-74
2022/05/16 04:38:56;;;;;;;9.18;4.35;;;;;;;18.68;54.14;100501.19;5054171;28;20061;-74
2022/05/16 04:44:10;;;;;;;12.23;4.25;;;;;;;20.12;49.90;100504.91;5070771;28;20453;-75
2022/05/16 04:46:40;;;;;;;8.25;3.65;;;;;;;20.71;48.51;100507.22;5073036;28;20504;-75
2022/05/16 04:49:08;;;;;;;10.00;4.15;;;;;;;20.29;49.74;100499.56;5074870;28;20049;-75
2022/05/16 04:51:36;;;;;;;9.85;4.35;;;;;;;20.60;48.56;100498.44;5074237;28;20489;-76
2022/05/16 04:54:04;;;;;;;8.88;4.63;;;;;;;20.19;50.34;100506.88;5075031;28;20036;-75
2022/05/16 04:56:33;;;;;;;8.73;4.10;;;;;;;21.12;47.38;100508.53;5074060;28;20041;-73
2022/05/16 04:59:02;;;;;;;9.15;4.68;;;;;;;21.65;46.32;100510.41;5073627;28;20057;-75
2022/05/16 05:01:32;;;;;;;14.02;4.68;;;;;;;21.62;45.95;100510.72;5075150;28;20393;-75
2022/05/16 05:04:02;;;;;;;8.95;4.43;;;;;;;22.38;44.38;100501.91;5073918;28;20052;-74
2022/05/16 05:06:30;;;;;;;9.73;3.80;;;;;;;22.31;43.27;100506.31;5074103;28;20052;-84
2022/05/16 05:08:59;;;;;;;8.02;4.22;;;;;;;21.76;44.01;100511.16;5073548;28;20052;-78
2022/05/16 05:16:59;;;;;;;11.05;4.43;;;;;;;23.95;38.74;100505.66;5074529;28;20485;-79
2022/05/16 05:19:29;;;;;;;7.10;3.75;;;;;;;23.25;40.42;100500.66;5072776;28;20536;-76
2022/05/16 05:21:58;;;;;;;7.93;3.67;;;;;;;21.04;44.83;100504.91;5070818;28;20485;-79
2022/05/16 05:24:26;;;;;;;9.02;4.00;;;;;;;21.13;45.41;100502.13;5052853;28;20052;-78
2022/05/16 05:26:54;;;;;;;10.77;4.60;;;;;;;23.07;41.61;100503.56;5053016;28;20096;-79
2022/05/16 05:29:23;;;;;;;10.95;4.50;;;;;;;24.35;38.93;100496.56;5053739;28;20037;-75
2022/05/16 05:31:51;;;;;;;7.32;3.90;;;;;;;23.84;39.08;100506.88;5052749;28;20052;-72
2022/05/16 05:34:20;;;;;;;8.38;4.00;;;;;;;23.78;38.78;100499.38;5053820;28;20037;-73
2022/05/16 05:36:50;;;;;;;11.02;3.58;;;;;;;25.02;35.69;100502.41;5052742;28;20052;-74
2022/05/16 05:39:21;;;;;;;8.75;4.00;;;;;;;24.79;36.17;100506.91;5051847;28;20128;-75
2022/05/16 05:41:49;;;;;;;10.85;3.88;;;;;;;25.38;34.76;100502.69;5059880;28;20131;-76
2022/05/16 05:44:17;;;;;;;7.82;3.60;;;;;;;25.32;34.83;100500.66;5053737;28;20080;-76
2022/05/16 05:46:46;;;;;;;8.80;3.63;;;;;;;25.58;34.27;100502.19;5052453;28;20057;-75
2022/05/16 05:49:14;;;;;;;7.35;3.53;;;;;;;26.05;33.35;100507.38;5051181;28;20103;-67
2022/05/16 05:51:43;;;;;;;7.28;3.42;;;;;;;26.54;32.50;100515.09;5055864;28;20086;-70
2022/05/16 05:54:12;;;;;;;7.55;3.30;;;;;;;26.29;33.13;100519.97;5071927;28;20076;-68
2022/05/16 05:56:41;;;;;;;10.52;3.40;;;;;;;27.20;31.33;100515.06;5073344;28;20055;-71
2022/05/16 05:59:09;;;;;;;6.93;2.88;;;;;;;26.25;32.50;100505.81;5072904;28;20101;-75
2022/05/16 06:01:37;;;;;;;6.82;3.20;;;;;;;24.57;35.02;100507.72;5072951;28;20048;-70
2022/05/16 06:04:06;;;;;;;9.40;3.13;;;;;;;23.68;37.41;100510.44;5073220;28;20051;-76
2022/05/16 06:06:34;;;;;;;11.15;3.55;;;;;;;22.93;38.99;100522.38;5073071;28;20075;-72
2022/05/16 06:09:02;;;;;;;5.55;3.40;;;;;;;22.78;39.23;100517.56;5072883;28;20434;-71
2022/05/16 06:11:31;;;;;;;8.60;4.10;;;;;;;23.67;37.86;100516.91;5072576;28;20048;-70
2022/05/16 06:13:59;;;;;;;7.93;3.10;;;;;;;24.72;34.83;100517.72;5073076;28;20485;-71
2022/05/16 06:16:30;;;;;;;6.20;2.80;;;;;;;24.24;35.18;100524.16;5072470;28;20492;-71
2022/05/16 06:18:58;;;;;;;9.18;3.03;;;;;;;23.76;36.06;100511.47;5071416;28;20130;-71
2022/05/16 06:21:26;;;;;;;7.45;3.10;;;;;;;25.34;34.28;100523.16;5073051;28;20040;-74
2022/05/16 06:23:57;;;;;;;7.47;3.30;;;;;;;25.57;33.42;100523.16;5072929;28;20036;-73
2022/05/16 06:26:28;;;;;;;7.10;2.78;;;;;;;24.87;32.77;100515.06;5071047;28;20465;-82
2022/05/16 06:29:00;;;;;;;6.35;2.60;;;;;;;24.51;33.15;100518.31;5072614;28;20048;-78
2022/05/16 06:31:28;;;;;;;6.00;2.35;;;;;;;25.74;31.02;100514.88;5071453;28;20171;-80
2022/05/16 06:33:57;;;;;;;6.88;2.95;;;;;;;26.34;29.47;100513.91;5072876;28;20474;-79
2022/05/16 06:36:25;;;;;;;7.30;2.95;;;;;;;26.94;28.70;100504.66;5072463;28;20108;-78
2022/05/16 06:38:53;;;;;;;5.82;2.10;;;;;;;27.61;27.27;100501.59;5072253;28;20500;-73
2022/05/16 06:41:21;;;;;;;5.38;2.08;;;;;;;27.54;25.58;100503.44;5071178;28;20048;-73
2022/05/16 06:43:49;;;;;;;5.07;2.22;;;;;;;27.86;25.91;100504.78;5071324;28;20044;-73
2022/05/16 06:46:19;;;;;;;6.32;2.05;;;;;;;28.54;25.36;100496.81;5071191;28;20080;-80
2022/05/16 06:48:47;;;;;;;5.90;2.40;;;;;;;28.47;25.57;100499.50;5072021;28;20049;-74
2022/05/16 06:51:15;;;;;;;5.38;1.90;;;;;;;26.59;27.20;100501.69;5072445;28;20044;-74
2022/05/16 06:53:44;;;;;;;6.20;2.13;;;;;;;25.59;28.61;100504.72;5071226;28;20053;-75
2022/05/16 06:56:13;;;;;;;7.22;2.40;;;;;;;26.02;28.44;100510.50;5072670;28;20044;-81
2022/05/16 06:58:41;;;;;;;4.88;1.98;;;;;;;25.96;28.01;100509.38;5071293;28;20053;-83
2022/05/16 07:01:10;;;;;;;5.32;1.90;;;;;;;25.67;28.10;100512.84;5071593;28;20151;-75
2022/05/16 07:03:42;;;;;;;9.45;2.63;;;;;;;25.62;28.69;100504.34;5071086;28;20048;-73
2022/05/16 07:06:17;;;;;;;5.28;2.10;;;;;;;25.72;28.28;100514.22;5072380;28;20044;-74
2022/05/16 07:08:45;;;;;;;5.35;2.10;;;;;;;25.94;28.16;100518.78;5071014;28;20080;-78
2022/05/16 07:11:13;;;;;;;7.80;2.00;;;;;;;26.02;28.23;100520.59;5070989;28;20064;-73
2022/05/16 07:13:41;;;;;;;4.25;2.08;;;;;;;26.06;27.77;100519.19;5071369;28;20040;-79
2022/05/16 07:16:09;;;;;;;8.18;2.22;;;;;;;26.10;28.52;100518.63;5071148;28;20044;-78
2022/05/16 07:18:39;;;;;;;5.47;2.20;;;;;;;26.01;27.76;100514.28;5071733;28;20113;-79
2022/05/16 07:21:07;;;;;;;7.00;2.22;;;;;;;25.59;28.30;100515.66;5072514;28;20059;-75
2022/05/16 07:23:36;;;;;;;6.43;1.90;;;;;;;25.53;28.89;100521.84;5070476;28;20053;-75
2022/05/16 07:28:49;;;;;;;7.50;2.10;;;;;;;25.69;28.44;100516.25;5070779;28;20048;-78
2022/05/16 07:31:18;;;;;;;4.28;1.98;;;;;;;24.96;29.39;100514.00;5072084;28;20048;-76
2022/05/16 07:33:47;;;;;;;6.78;2.15;;;;;;;25.30;29.72;100521.84;5070838;28;20052;-74
2022/05/16 07:36:15;;;;;;;4.60;1.88;;;;;;;24.65;30.34;100513.13;5070898;28;20420;-79
2022/05/16 07:38:44;;;;;;;7.13;2.17;;;;;;;24.84;30.01;100520.88;5072161;28;20127;-74
2022/05/16 07:41:12;;;;;;;8.48;2.28;;;;;;;24.83;29.64;100519.19;5076189;28;20567;-77
2022/05/16 07:43:42;;;;;;;6.28;2.45;;;;;;;24.82;29.94;100517.50;5075735;28;20045;-74
2022/05/16 07:46:10;;;;;;;5.22;2.20;;;;;;;24.23;30.61;100517.00;5074788;28;20049;-74
2022/05/16 07:48:57;;;;;;;6.03;2.28;;;;;;;24.53;30.40;100523.59;5075171;28;20055;-80
2022/05/16 07:51:27;;;;;;;6.25;2.08;;;;;;;24.44;30.45;100519.19;5054400;28;20072;-78
2022/05/16 07:53:55;;;;;;;7.57;2.00;;;;;;;24.42;30.92;100516.66;5054386;28;20118;-76
2022/05/16 07:56:23;;;;;;;6.72;2.45;;;;;;;24.50;30.48;100519.31;5055288;28;20441;-74
2022/05/16 07:58:52;;;;;;;4.55;2.33;;;;;;;24.39;30.26;100516.97;5055440;28;20478;-74
2022/05/16 08:01:20;;;;;;;6.13;2.20;;;;;;;24.62;29.86;100516.22;5054386;28;20057;-73
2022/05/16 08:03:48;;;;;;;6.95;2.40;;;;;;;24.83;30.29;100513.75;5054388;28;20052;-74
2022/05/16 08:06:17;;;;;;;8.20;2.40;;;;;;;25.31;29.10;100525.44;5054152;28;20548;-73
2022/05/16 08:11:28;;;;;;;6.05;2.20;;;;;;;25.90;28.07;100525.66;5011521;28;20449;-75
2022/05/16 08:13:56;;;;;;;6.40;2.08;;;;;;;25.38;28.83;100523.66;5055140;28;20120;-76
2022/05/16 08:16:25;;;;;;;7.43;2.45;;;;;;;25.46;29.08;100523.59;5054042;28;20414;-74
2022/05/16 08:18:53;;;;;;;9.55;2.30;;;;;;;25.52;29.37;100524.75;5053833;28;20102;-74
2022/05/16 08:21:21;;;;;;;5.25;1.90;;;;;;;25.00;28.84;100520.81;5053565;28;20449;-78
2022/05/16 08:23:51;;;;;;;5.80;2.22;;;;;;;24.92;29.73;100523.59;5053744;28;20045;-76
2022/05/16 08:26:19;;;;;;;4.60;2.33;;;;;;;24.83;29.95;100511.00;5053961;28;20052;-74
2022/05/16 08:28:48;;;;;;;3.85;2.20;;;;;;;24.62;29.86;100522.53;5054853;28;20394;-74
2022/05/16 08:31:16;;;;;;;7.13;2.28;;;;;;;24.53;29.93;100518.97;5055126;28;20059;-73
2022/05/16 08:33:45;;;;;;;6.07;2.50;;;;;;;24.66;30.08;100523.03;5053488;28;20170;-73
2022/05/16 08:41:53;;;;;;;4.35;2.00;;;;;;;25.89;28.90;100516.63;5054037;28;20080;-74
2022/05/16 08:44:27;;;;;;;7.15;2.38;;;;;;;25.74;29.25;100514.88;5053722;28;20167;-84
2022/05/16 08:47:12;;;;;;;6.60;2.40;;;;;;;25.87;29.66;100520.56;5055047;28;20090;-79
2022/05/16 08:49:49;;;;;;;5.65;2.25;;;;;;;26.00;29.02;100517.19;5061498;28;20056;-75
2022/05/16 08:52:27;;;;;;;7.32;2.30;;;;;;;25.74;29.12;100517.59;5074821;28;20119;-77
2022/05/16 08:55:04;;;;;;;5.18;2.28;;;;;;;25.78;28.54;100519.78;5073759;28;20048;-78
2022/05/16 08:57:36;;;;;;;5.85;2.42;;;;;;;25.95;28.69;100512.28;5074515;28;20126;-78
2022/05/16 09:00:09;;;;;;;5.43;2.33;;;;;;;25.92;28.56;100509.91;5073480;28;20052;-78
2022/05/16 09:02:42;;;;;;;6.07;2.33;;;;;;;25.47;29.27;100514.38;5073037;28;20052;-78
2022/05/16 09:05:18;;;;;;;6.80;2.63;;;;;;;25.21;30.08;100512.00;5074998;28;20474;-78
2022/05/16 09:07:50;;;;;;;4.55;2.30;;;;;;;25.48;29.44;100518.81;5074990;28;20477;-77
2022/05/16 09:10:23;;;;;;;5.45;2.22;;;;;;;25.40;29.68;100513.41;5075064;28;20528;-77
2022/05/16 09:13:03;;;;;;;7.35;2.45;;;;;;;25.62;30.30;100509.81;5074981;28;20042;-77
2022/05/16 09:15:38;;;;;;;5.50;2.20;;;;;;;25.64;29.99;100507.75;5074663;28;20090;-77
2022/05/16 09:18:26;;;;;;;7.97;2.40;;;;;;;25.75;29.50;100506.47;5073408;28;20044;-78
2022/05/16 09:21:08;;;;;;;5.78;2.40;;;;;;;26.16;29.17;100504.22;5074682;28;20421;-78
2022/05/16 09:23:50;;;;;;;6.95;2.65;;;;;;;26.28;29.19;100503.75;5072820;28;20588;-78
2022/05/16 09:26:31;;;;;;;6.68;2.58;;;;;;;25.93;29.10;100507.00;5073425;28;20076;-78
2022/05/16 09:29:06;;;;;;;8.18;2.50;;;;;;;25.83;29.81;100509.16;5073369;28;20082;-78
2022/05/16 09:31:40;;;;;;;8.88;2.58;;;;;;;26.16;29.43;100498.75;5074174;28;20045;-78
2022/05/16 09:34:09;;;;;;;8.60;2.60;;;;;;;26.52;29.20;100500.75;5073177;28;20051;-78
2022/05/16 09:36:42;;;;;;;6.60;2.40;;;;;;;26.93;28.35;100498.34;5072876;28;20074;-77
2022/05/16 09:39:15;;;;;;;6.93;2.72;;;;;;;27.09;27.75;100492.63;5072894;28;20049;-78
2022/05/16 09:41:52;;;;;;;6.05;2.42;;;;;;;27.06;28.55;100495.78;5072767;28;20086;-78
2022/05/16 09:44:25;;;;;;;5.53;2.40;;;;;;;27.12;27.83;100491.44;5074001;28;20037;-78
2022/05/16 09:47:23;;;;;;;8.15;2.65;;;;;;;27.12;28.29;100485.94;5073174;28;20420;-78
2022/05/16 09:50:09;;;;;;;6.05;2.38;;;;;;;27.14;28.41;100483.88;5072859;28;20143;-78
2022/05/16 09:52:42;;;;;;;7.35;2.70;;;;;;;27.09;27.58;100481.69;5072740;28;20485;-78
2022/05/16 09:55:16;;;;;;;5.88;2.30;;;;;;;26.40;28.67;100483.13;5074165;28;20460;-77
2022/05/16 09:57:48;;;;;;;;;;;;;;;26.02;29.30;100477.72;5072937;28;20151;-77
2022/05/16 10:00:24;;;;;;;6.80;2.65;;;;;;;26.09;28.32;100478.66;5072498;28;19924;-77
2022/05/16 10:03:03;;;;;;;7.38;2.35;;;;;;;26.13;28.40;100473.66;5072394;28;20552;-77
2022/05/16 10:05:32;;;;;;;8.07;2.80;;;;;;;26.46;28.53;100469.53;5072303;28;20052;-78
2022/05/16 10:08:04;;;;;;;7.13;2.67;;;;;;;26.46;28.33;100468.69;5072547;28;20151;-78
2022/05/16 10:10:36;;;;;;;6.20;2.53;;;;;;;26.30;28.49;100464.22;5071979;28;20055;-79
2022/05/16 10:13:06;;;;;;;6.55;2.50;;;;;;;26.51;28.70;100456.13;5073399;28;20098;-77
2022/05/16 10:15:36;;;;;;;7.03;2.33;;;;;;;26.54;28.82;100454.94;5072936;28;20143;-77
2022/05/16 10:18:09;;;;;;;5.53;2.70;;;;;;;26.58;28.55;100452.66;5072411;28;20049;-78
2022/05/16 10:20:45;;;;;;;4.97;2.53;;;;;;;26.54;28.84;100446.72;5073382;28;20049;-78
2022/05/16 10:23:22;;;;;;;4.72;2.30;;;;;;;26.34;28.96;100448.28;5076160;28;20047;-78
2022/05/16 10:25:54;;;;;;;6.35;2.80;;;;;;;26.50;28.87;100451.69;5071758;28;20048;-77
2022/05/16 10:28:29;;;;;;;7.63;3.40;;;;;;;26.39;29.26;100452.19;5073766;28;20055;-78
2022/05/16 10:33:50;;;;;;;7.55;2.35;;;;;;;25.81;29.85;100447.53;5071463;28;20048;-77
2022/05/16 10:36:25;;;;;;;7.85;2.63;;;;;;;25.91;29.44;100450.84;5073150;28;20139;-77
2022/05/16 10:39:04;;;;;;;5.82;2.83;;;;;;;25.91;30.06;100446.22;5072591;28;20048;-80
2022/05/16 10:41:37;;;;;;;6.40;2.35;;;;;;;26.31;29.42;100445.94;5071627;28;20044;-79
2022/05/16 10:44:18;;;;;;;6.63;2.40;;;;;;;26.41;28.73;100438.31;5073130;28;20041;-77
2022/05/16 10:46:54;;;;;;;7.50;2.47;;;;;;;26.46;29.15;100446.81;5072669;28;20576;-78
2022/05/16 10:49:29;;;;;;;7.25;2.30;;;;;;;26.79;28.90;100442.59;5073280;28;20061;-78
2022/05/16 10:52:15;;;;;;;9.65;2.70;;;;;;;26.62;28.71;100441.09;5072746;28;20072;-78
2022/05/16 10:54:44;;;;;;;6.57;2.67;;;;;;;26.87;28.50;100443.53;5072449;28;20044;-81
2022/05/16 10:57:29;;;;;;;7.97;2.42;;;;;;;27.02;28.32;100444.28;5073001;28;20068;-77
2022/05/16 11:00:10;;;;;;;6.30;2.47;;;;;;;27.46;27.89;100433.19;5071706;28;20049;-78
2022/05/16 11:02:56;;;;;;;9.40;2.65;;;;;;;27.86;27.43;100442.59;5071438;28;20056;-77
2022/05/16 11:05:39;;;;;;;7.18;2.83;;;;;;;28.11;27.45;100431.16;5073020;28;20048;-77
2022/05/16 11:08:20;;;;;;;6.15;2.70;;;;;;;28.18;26.67;100434.75;5073058;28;20052;-77
2022/05/16 11:10:55;;;;;;;11.38;3.10;;;;;;;28.45;27.18;100424.81;5071470;28;20052;-77
2022/05/16 11:13:35;;;;;;;7.40;2.97;;;;;;;28.46;26.60;100423.75;5074400;28;20079;-78
2022/05/16 11:16:11;;;;;;;6.70;2.30;;;;;;;28.38;26.79;100424.78;5076053;28;20048;-78
2022/05/16 11:18:46;;;;;;;11.35;2.78;;;;;;;28.07;27.37;100413.41;5076319;28;20143;-77
2022/05/16 11:21:26;;;;;;;9.00;2.65;;;;;;;27.73;28.09;100415.09;5076958;28;20123;-77
2022/05/16 11:24:03;;;;;;;6.35;2.67;;;;;;;27.60;28.24;100410.34;5075461;28;20041;-79
2022/05/16 11:26:40;;;;;;;6.07;2.78;;;;;;;27.52;27.80;100404.16;5075643;28;20080;-79
2022/05/16 11:29:19;;;;;;;7.47;2.65;;;;;;;27.41;28.00;100404.69;5076880;28;20486;-79
2022/05/16 11:31:58;;;;;;;7.00;2.70;;;;;;;27.13;28.48;100405.50;5075422;28;20071;-79
2022/05/16 11:34:37;;;;;;;5.00;2.50;;;;;;;27.20;28.04;100406.41;5075653;28;20048;-77
2022/05/16 11:37:19;;;;;;;8.35;2.85;;;;;;;27.06;28.73;100410.06;5076826;28;20070;-78
2022/05/16 11:39:54;;;;;;;5.03;2.50;;;;;;;27.11;29.11;100396.63;5076241;28;20048;-79
2022/05/16 11:42:28;;;;;;;6.30;2.95;;;;;;;27.05;28.79;100403.75;5076371;28;20473;-78
2022/05/16 11:45:09;;;;;;;6.30;3.03;;;;;;;27.13;28.62;100393.72;5076239;28;20051;-78
2022/05/16 11:47:44;;;;;;;7.20;2.88;;;;;;;27.22;28.14;100384.31;5075251;28;20074;-80
2022/05/16 11:50:42;;;;;;;6.30;2.80;;;;;;;27.20;29.19;100391.84;5075054;28;20556;-79
2022/05/16 11:53:37;;;;;;;7.80;2.72;;;;;;;27.20;29.25;100386.38;5075422;28;20382;-79
2022/05/16 12:02:15;;;;;;;6.22;3.00;;;;;;;27.49;28.15;100372.50;5075160;28;20110;-79
2022/05/16 12:04:48;;;;;;;8.63;3.25;;;;;;;27.05;28.59;100375.53;5075294;28;20486;-79
2022/05/16 12:07:29;;;;;;;5.40;3.00;;;;;;;27.21;28.85;100369.75;5074733;28;20041;-79
2022/05/16 12:10:01;;;;;;;8.57;3.00;;;;;;;27.41;28.70;100366.31;5075336;28;20074;-80
2022/05/16 12:12:37;;;;;;;8.05;3.10;;;;;;;27.35;28.87;100360.63;5074472;28;20128;-80
2022/05/16 12:15:19;;;;;;;8.85;2.85;;;;;;;27.06;28.85;100367.13;5075805;28;20515;-79
2022/05/16 12:17:52;;;;;;;6.60;3.03;;;;;;;26.82;28.98;100360.09;5074467;28;20048;-80
2022/05/16 12:20:38;;;;;;;10.48;3.50;;;;;;;27.11;30.07;100358.28;5074698;28;20098;-79
2022/05/16 12:23:09;;;;;;;7.53;2.80;;;;;;;27.57;29.73;100355.94;5075616;28;20045;-80
2022/05/16 12:25:43;;;;;;;7.72;3.33;;;;;;;27.53;28.34;100343.69;5073139;28;20044;-80